Time;durP1;ratioP1;P1;durP2;ratioP2;P2;SDS_P1;SDS_P2;PMS_P1;PMS_P2;Temp;Humidity;BMP_temperature;BMP_pressure;BME280_temperature;BME280_humidity;BME280_pressure;Samples;Min_cycle;Max_cycle;Signal;HPM_P1;HPM_P2
2022/09/07 00:00:08;;;;;;;19.90;6.45;;;;;;;;;;4841615;29;20514;-67
2022/09/07 00:02:35;;;;;;;32.88;8.30;;;;;;;;;;4841513;29;20161;-66
2022/09/07 00:05:02;;;;;;;29.95;7.47;;;;;;;;;;4841864;29;20077;-67
2022/09/07 00:07:29;;;;;;;21.50;6.25;;;;;;;;;;4833286;29;20415;-66
2022/09/07 00:09:55;;;;;;;27.40;7.63;;;;;;;;;;4838865;29;20606;-67
2022/09/07 00:12:22;;;;;;;25.50;7.47;;;;;;;;;;4841188;29;20499;-64
2022/09/07 00:14:48;;;;;;;27.83;7.50;;;;;;;;;;4841463;29;20125;-64
2022/09/07 00:17:15;;;;;;;25.50;8.32;;;;;;;;;;4841267;29;20088;-65
2022/09/07 00:19:41;;;;;;;25.95;7.75;;;;;;;;;;4841806;29;20536;-64
2022/09/07 00:22:08;;;;;;;16.88;6.47;;;;;;;;;;4841441;29;20132;-68
2022/09/07 00:24:35;;;;;;;25.95;7.10;;;;;;;;;;4851571;29;20057;-67
2022/09/07 00:27:01;;;;;;;39.40;9.02;;;;;;;;;;4840591;29;20081;-68
2022/09/07 00:29:28;;;;;;;20.75;6.50;;;;;;;;;;4840265;29;20038;-66
2022/09/07 00:31:55;;;;;;;36.10;8.13;;;;;;;;;;4839911;29;20056;-69
2022/09/07 00:34:22;;;;;;;32.92;8.02;;;;;;;;;;4841732;29;20049;-68
2022/09/07 00:36:48;;;;;;;23.27;7.32;;;;;;;;;;4838555;29;20056;-66
2022/09/07 00:39:15;;;;;;;25.70;7.03;;;;;;;;;;4840887;29;20098;-64
2022/09/07 00:41:41;;;;;;;41.22;9.10;;;;;;;;;;4830821;29;20492;-69
2022/09/07 00:44:27;;;;;;;25.65;7.55;;;;;;;;;;4840830;29;20045;-67
2022/09/07 00:46:53;;;;;;;37.03;8.57;;;;;;;;;;4837568;29;20078;-70
2022/09/07 00:49:21;;;;;;;26.60;7.07;;;;;;;;;;4841452;29;20045;-68
2022/09/07 00:51:53;;;;;;;24.65;6.75;;;;;;;;;;4840658;29;20042;-68
2022/09/07 00:54:26;;;;;;;33.90;8.70;;;;;;;;;;4840433;29;20546;-67
2022/09/07 00:56:53;;;;;;;33.72;8.13;;;;;;;;;;4840480;29;20479;-72
2022/09/07 00:59:22;;;;;;;31.73;7.75;;;;;;;;;;4840617;29;20073;-68
2022/09/07 01:01:49;;;;;;;29.13;8.23;;;;;;;;;;4836940;29;20075;-68
2022/09/07 01:04:16;;;;;;;17.52;7.10;;;;;;;;;;4840558;29;20074;-66
2022/09/07 01:06:43;;;;;;;23.33;7.10;;;;;;;;;;4833558;29;20046;-69
2022/09/07 01:09:18;;;;;;;35.25;8.63;;;;;;;;;;4831461;29;20447;-69
2022/09/07 01:11:49;;;;;;;32.38;8.48;;;;;;;;;;4840313;29;20380;-68
2022/09/07 01:14:18;;;;;;;34.80;8.52;;;;;;;;;;4840098;29;20050;-67
2022/09/07 01:16:51;;;;;;;26.17;6.57;;;;;;;;;;4841035;29;20117;-64
2022/09/07 01:19:23;;;;;;;26.63;7.15;;;;;;;;;;4840133;29;20049;-66
2022/09/07 01:21:58;;;;;;;24.50;7.72;;;;;;;;;;4839963;29;20046;-66
2022/09/07 01:24:24;;;;;;;28.30;7.35;;;;;;;;;;4840111;29;20158;-66
2022/09/07 01:26:53;;;;;;;45.58;9.90;;;;;;;;;;4839667;29;20112;-68
2022/09/07 01:29:20;;;;;;;22.35;7.18;;;;;;;;;;4839982;29;20152;-67
2022/09/07 01:31:52;;;;;;;31.40;7.95;;;;;;;;;;4840795;29;20139;-67
2022/09/07 01:34:21;;;;;;;25.33;7.13;;;;;;;;;;4839830;29;20500;-68
2022/09/07 01:36:52;;;;;;;27.23;7.28;;;;;;;;;;4836934;29;20065;-68
2022/09/07 01:39:21;;;;;;;32.55;7.70;;;;;;;;;;4839407;29;20046;-67
2022/09/07 01:41:50;;;;;;;35.00;8.45;;;;;;;;;;4839533;29;20125;-67
2022/09/07 01:44:20;;;;;;;24.63;7.47;;;;;;;;;;4839628;29;20132;-68
2022/09/07 01:47:01;;;;;;;26.65;7.43;;;;;;;;;;4840803;29;20049;-69
2022/09/07 01:49:31;;;;;;;22.30;7.30;;;;;;;;;;4839095;29;20049;-69
2022/09/07 01:52:01;;;;;;;27.60;8.40;;;;;;;;;;4839442;29;20396;-69
2022/09/07 01:54:27;;;;;;;20.65;7.13;;;;;;;;;;4839669;29;20050;-68
2022/09/07 01:56:56;;;;;;;32.00;8.40;;;;;;;;;;4839488;29;20466;-69
2022/09/07 01:59:26;;;;;;;27.60;8.07;;;;;;;;;;4839439;29;20124;-68
2022/09/07 02:01:55;;;;;;;27.15;7.70;;;;;;;;;;4836896;29;20121;-67
2022/09/07 02:04:27;;;;;;;28.67;8.43;;;;;;;;;;4837114;29;20042;-65
2022/09/07 02:07:03;;;;;;;25.05;6.50;;;;;;;;;;4836293;29;20061;-68
2022/09/07 02:09:42;;;;;;;26.95;7.07;;;;;;;;;;4839405;29;20547;-69
2022/09/07 02:12:16;;;;;;;39.70;9.00;;;;;;;;;;4838966;29;20128;-69
2022/09/07 02:14:45;;;;;;;20.73;7.65;;;;;;;;;;4839943;29;20065;-68
2022/09/07 02:17:21;;;;;;;37.15;8.05;;;;;;;;;;4839216;29;20096;-68
2022/09/07 02:19:50;;;;;;;24.33;7.63;;;;;;;;;;4840155;29;20141;-66
2022/09/07 02:22:21;;;;;;;20.83;7.00;;;;;;;;;;4839177;29;20046;-67
2022/09/07 02:24:51;;;;;;;33.03;8.45;;;;;;;;;;4838972;29;20563;-69
2022/09/07 02:27:24;;;;;;;23.60;7.18;;;;;;;;;;4838581;29;20072;-69
2022/09/07 02:29:51;;;;;;;37.55;9.32;;;;;;;;;;4838942;29;20046;-68
2022/09/07 02:32:17;;;;;;;23.05;7.35;;;;;;;;;;4837933;29;20104;-71
2022/09/07 02:34:45;;;;;;;25.45;7.50;;;;;;;;;;4838586;29;20050;-71
2022/09/07 02:37:13;;;;;;;28.63;8.60;;;;;;;;;;4838227;29;20052;-71
2022/09/07 02:39:39;;;;;;;21.33;7.85;;;;;;;;;;4839026;29;20089;-71
2022/09/07 02:42:06;;;;;;;21.88;7.47;;;;;;;;;;4838599;29;20118;-67
2022/09/07 02:44:35;;;;;;;29.00;7.93;;;;;;;;;;4838980;29;20050;-67
2022/09/07 02:47:01;;;;;;;36.58;8.77;;;;;;;;;;4839218;29;20424;-67
2022/09/07 02:49:36;;;;;;;32.97;9.48;;;;;;;;;;4839776;29;20539;-67
2022/09/07 02:52:03;;;;;;;38.08;7.97;;;;;;;;;;4840231;29;20078;-67
2022/09/07 02:54:33;;;;;;;27.65;8.35;;;;;;;;;;4843053;29;20119;-67
2022/09/07 02:57:15;;;;;;;30.95;7.32;;;;;;;;;;4842256;29;20071;-66
2022/09/07 02:59:54;;;;;;;134.38;13.65;;;;;;;;;;4842612;29;20504;-66
2022/09/07 03:02:26;;;;;;;70.15;10.40;;;;;;;;;;4842578;29;20038;-68
2022/09/07 03:05:01;;;;;;;55.70;9.88;;;;;;;;;;4834174;29;20058;-68
2022/09/07 03:07:30;;;;;;;28.15;8.23;;;;;;;;;;4842162;29;20038;-68
2022/09/07 03:10:04;;;;;;;38.00;9.20;;;;;;;;;;4842495;29;20054;-68
2022/09/07 03:12:38;;;;;;;18.35;6.53;;;;;;;;;;4842588;29;20129;-66
2022/09/07 03:15:05;;;;;;;36.70;8.18;;;;;;;;;;4842268;29;20381;-67
2022/09/07 03:17:31;;;;;;;19.50;6.90;;;;;;;;;;4842908;29;20037;-67
2022/09/07 03:19:58;;;;;;;31.73;8.43;;;;;;;;;;4842247;29;20064;-68
2022/09/07 03:22:24;;;;;;;35.17;8.50;;;;;;;;;;4842715;29;20122;-68
2022/09/07 03:24:51;;;;;;;30.40;8.77;;;;;;;;;;4842033;29;20050;-68
2022/09/07 03:27:18;;;;;;;28.98;7.53;;;;;;;;;;4841971;29;20138;-68
2022/09/07 03:29:44;;;;;;;52.75;10.90;;;;;;;;;;4837939;29;20046;-68
2022/09/07 03:32:11;;;;;;;40.88;8.50;;;;;;;;;;4841153;29;20094;-67
2022/09/07 03:34:37;;;;;;;39.67;8.82;;;;;;;;;;4842287;29;20070;-66
2022/09/07 03:37:04;;;;;;;25.27;7.47;;;;;;;;;;4840117;29;20462;-66
2022/09/07 03:39:31;;;;;;;39.80;8.45;;;;;;;;;;4841755;29;20133;-66
2022/09/07 03:41:57;;;;;;;38.38;10.15;;;;;;;;;;4841634;29;20117;-66
2022/09/07 03:44:24;;;;;;;38.42;9.00;;;;;;;;;;4842010;29;20124;-66
2022/09/07 03:46:50;;;;;;;40.70;9.40;;;;;;;;;;4842899;29;20069;-66
2022/09/07 03:49:17;;;;;;;26.10;8.50;;;;;;;;;;4841839;29;20507;-70
2022/09/07 03:51:44;;;;;;;71.72;15.27;;;;;;;;;;4841501;29;20415;-68
2022/09/07 03:54:10;;;;;;;79.78;15.65;;;;;;;;;;4841508;29;20488;-70
2022/09/07 03:56:37;;;;;;;38.88;16.50;;;;;;;;;;4841886;29;20521;-68
2022/09/07 03:59:03;;;;;;;40.83;17.73;;;;;;;;;;4841331;29;20567;-67
2022/09/07 04:01:30;;;;;;;48.38;14.10;;;;;;;;;;4833480;29;20700;-66
2022/09/07 04:03:57;;;;;;;52.28;12.75;;;;;;;;;;4838564;29;20107;-67
2022/09/07 04:06:28;;;;;;;36.00;10.07;;;;;;;;;;4841338;29;20535;-65
2022/09/07 04:08:55;;;;;;;49.85;10.60;;;;;;;;;;4841447;29;20129;-65
2022/09/07 04:11:22;;;;;;;44.88;12.80;;;;;;;;;;4841613;29;20042;-65
2022/09/07 04:13:48;;;;;;;63.33;13.93;;;;;;;;;;4841711;29;20132;-66
2022/09/07 04:16:19;;;;;;;52.08;16.58;;;;;;;;;;4841717;29;20102;-66
2022/09/07 04:18:46;;;;;;;47.40;14.48;;;;;;;;;;4841223;29;20452;-65
2022/09/07 04:21:12;;;;;;;35.38;10.73;;;;;;;;;;4841294;29;20118;-64
2022/09/07 04:23:40;;;;;;;43.05;9.77;;;;;;;;;;4839951;29;20137;-66
2022/09/07 04:26:12;;;;;;;30.58;9.30;;;;;;;;;;4831496;29;20092;-68
2022/09/07 04:28:39;;;;;;;33.50;10.50;;;;;;;;;;4841446;29;20129;-66
2022/09/07 04:31:05;;;;;;;38.13;10.60;;;;;;;;;;4841239;29;20050;-67
2022/09/07 04:33:33;;;;;;;42.67;10.30;;;;;;;;;;4839747;29;20046;-68
2022/09/07 04:35:59;;;;;;;41.38;10.43;;;;;;;;;;4838006;29;20136;-65
2022/09/07 04:38:26;;;;;;;54.20;11.43;;;;;;;;;;4841232;29;20069;-68
2022/09/07 04:40:59;;;;;;;45.92;9.57;;;;;;;;;;4838056;29;20144;-67
2022/09/07 04:43:26;;;;;;;41.27;9.90;;;;;;;;;;4840603;29;20041;-69
2022/09/07 04:45:53;;;;;;;48.28;9.27;;;;;;;;;;4840736;29;20297;-72
2022/09/07 04:48:20;;;;;;;26.05;7.65;;;;;;;;;;4840750;29;20514;-71
2022/09/07 04:50:46;;;;;;;51.20;10.30;;;;;;;;;;4840648;29;20050;-70
2022/09/07 04:53:13;;;;;;;43.33;8.68;;;;;;;;;;4840765;29;20077;-70
2022/09/07 04:55:39;;;;;;;33.53;6.82;;;;;;;;;;4841384;29;20042;-71
2022/09/07 04:58:06;;;;;;;116.32;11.13;;;;;;;;;;4840376;29;20122;-65
2022/09/07 05:00:33;;;;;;;141.27;18.40;;;;;;;;;;4839103;29;20046;-66
2022/09/07 05:02:59;;;;;;;61.72;9.57;;;;;;;;;;4830205;29;20121;-66
2022/09/07 05:05:26;;;;;;;45.42;8.52;;;;;;;;;;4840552;29;20065;-67
2022/09/07 05:07:52;;;;;;;58.05;10.80;;;;;;;;;;4836879;29;20602;-69
2022/09/07 05:10:19;;;;;;;41.15;8.70;;;;;;;;;;4840683;29;20054;-66
2022/09/07 05:12:46;;;;;;;58.97;9.05;;;;;;;;;;4840023;29;20062;-71
2022/09/07 05:15:12;;;;;;;52.45;8.18;;;;;;;;;;4833590;29;20066;-68
2022/09/07 05:17:39;;;;;;;54.95;8.38;;;;;;;;;;4827389;29;20038;-67
2022/09/07 05:20:06;;;;;;;53.40;9.23;;;;;;;;;;4840139;29;20078;-67
2022/09/07 05:22:34;;;;;;;43.53;7.88;;;;;;;;;;4839876;29;20049;-66
2022/09/07 05:25:01;;;;;;;41.38;9.02;;;;;;;;;;4840108;29;20070;-66
2022/09/07 05:27:27;;;;;;;44.85;9.23;;;;;;;;;;4840027;29;20038;-66
2022/09/07 05:29:54;;;;;;;47.78;9.35;;;;;;;;;;4839895;29;20046;-66
2022/09/07 05:32:23;;;;;;;30.75;6.68;;;;;;;;;;4839051;29;20044;-66
2022/09/07 05:34:50;;;;;;;37.92;6.88;;;;;;;;;;4838418;29;20137;-67
2022/09/07 05:37:18;;;;;;;38.75;7.63;;;;;;;;;;4839168;29;20079;-69
2022/09/07 05:39:45;;;;;;;26.08;6.55;;;;;;;;;;4839777;29;20134;-68
2022/09/07 05:42:12;;;;;;;32.03;6.60;;;;;;;;;;4839568;29;20038;-68
2022/09/07 05:44:39;;;;;;;84.93;10.00;;;;;;;;;;4840381;29;20042;-69
2022/09/07 05:47:08;;;;;;;63.20;7.93;;;;;;;;;;4839894;29;20046;-69
2022/09/07 05:49:35;;;;;;;56.97;7.40;;;;;;;;;;4840046;29;20082;-69
2022/09/07 05:52:02;;;;;;;59.13;7.13;;;;;;;;;;4839662;29;20046;-69
2022/09/07 05:54:28;;;;;;;241.55;18.10;;;;;;;;;;4839674;29;20117;-69
2022/09/07 05:56:55;;;;;;;74.35;9.20;;;;;;;;;;4839345;29;20125;-68
2022/09/07 05:59:21;;;;;;;97.22;10.15;;;;;;;;;;4833754;29;20046;-67
2022/09/07 06:01:48;;;;;;;65.88;7.30;;;;;;;;;;4840191;29;20052;-67
2022/09/07 06:04:14;;;;;;;36.58;6.22;;;;;;;;;;4839122;29;20065;-66
2022/09/07 06:06:41;;;;;;;47.20;6.85;;;;;;;;;;4839491;29;20128;-67
2022/09/07 06:09:24;;;;;;;30.25;6.25;;;;;;;;;;4839775;29;20046;-67
2022/09/07 06:11:55;;;;;;;39.65;7.13;;;;;;;;;;4839083;29;20149;-67
2022/09/07 06:14:22;;;;;;;24.90;5.18;;;;;;;;;;4839713;29;20066;-67
2022/09/07 06:16:48;;;;;;;36.63;7.07;;;;;;;;;;4837798;29;20203;-67
2022/09/07 06:19:15;;;;;;;70.15;8.30;;;;;;;;;;4837963;29;20068;-67
2022/09/07 06:21:42;;;;;;;50.90;6.55;;;;;;;;;;4839388;29;20057;-70
2022/09/07 06:24:08;;;;;;;70.25;8.00;;;;;;;;;;4839297;29;20129;-66
2022/09/07 06:26:35;;;;;;;50.85;7.30;;;;;;;;;;4838789;29;20117;-66
2022/09/07 06:29:02;;;;;;;30.00;5.85;;;;;;;;;;4839302;29;20134;-67
2022/09/07 06:31:29;;;;;;;32.72;5.75;;;;;;;;;;4839560;29;20046;-66
2022/09/07 06:33:56;;;;;;;302.90;23.95;;;;;;;;;;4837382;29;20058;-66
2022/09/07 06:36:24;;;;;;;74.95;8.10;;;;;;;;;;4836211;29;20046;-63
2022/09/07 06:38:50;;;;;;;21.58;5.57;;;;;;;;;;4839056;29;20053;-63
2022/09/07 06:41:17;;;;;;;29.33;5.78;;;;;;;;;;4838803;29;20211;-63
2022/09/07 06:44:03;;;;;;;23.38;5.38;;;;;;;;;;4833293;29;20174;-65
2022/09/07 06:46:30;;;;;;;26.75;6.00;;;;;;;;;;4839920;29;20137;-65
2022/09/07 06:49:16;;;;;;;25.23;4.60;;;;;;;;;;4838965;29;20042;-65
2022/09/07 06:51:43;;;;;;;64.75;8.45;;;;;;;;;;4838607;29;20064;-68
2022/09/07 06:54:10;;;;;;;113.35;10.65;;;;;;;;;;4839512;29;20061;-66
2022/09/07 06:56:56;;;;;;;37.28;6.32;;;;;;;;;;4839099;29;20057;-65
2022/09/07 06:59:22;;;;;;;24.30;5.05;;;;;;;;;;4832931;29;20070;-64
2022/09/07 07:01:49;;;;;;;30.42;5.55;;;;;;;;;;4839935;29;20573;-64
2022/09/07 07:04:15;;;;;;;137.75;14.38;;;;;;;;;;4838053;29;20614;-65
2022/09/07 07:06:42;;;;;;;49.03;8.65;;;;;;;;;;4837150;29;20073;-65
2022/09/07 07:09:10;;;;;;;22.17;3.92;;;;;;;;;;4822512;29;20078;-63
2022/09/07 07:11:37;;;;;;;30.77;5.07;;;;;;;;;;4831493;29;20042;-64
2022/09/07 07:14:04;;;;;;;26.67;5.18;;;;;;;;;;4833969;29;20046;-66
2022/09/07 07:16:30;;;;;;;18.58;3.42;;;;;;;;;;4839256;29;20732;-63
2022/09/07 07:18:57;;;;;;;17.15;3.90;;;;;;;;;;4838353;29;20046;-63
2022/09/07 07:21:23;;;;;;;26.27;4.30;;;;;;;;;;4838487;29;20046;-65
2022/09/07 07:23:51;;;;;;;169.98;13.55;;;;;;;;;;4838508;29;20141;-63
2022/09/07 07:26:18;;;;;;;398.30;41.30;;;;;;;;;;4838907;29;20491;-64
2022/09/07 07:28:49;;;;;;;25.88;4.75;;;;;;;;;;4838788;29;20053;-63
2022/09/07 07:31:23;;;;;;;22.17;3.90;;;;;;;;;;4838210;29;20167;-67
2022/09/07 07:33:53;;;;;;;26.58;4.93;;;;;;;;;;4834391;29;20099;-67
2022/09/07 07:36:20;;;;;;;193.63;14.65;;;;;;;;;;4835249;29;20077;-63
2022/09/07 07:38:48;;;;;;;14.95;3.17;;;;;;;;;;4841263;29;20136;-63
2022/09/07 07:41:30;;;;;;;;;;;;;;;;;;4842593;29;20102;-63
2022/09/07 07:44:17;;;;;;;28.50;5.10;;;;;;;;;;4841605;29;19952;-61
2022/09/07 07:46:45;;;;;;;18.85;3.25;;;;;;;;;;4842557;29;20042;-60
2022/09/07 07:49:12;;;;;;;50.00;5.72;;;;;;;;;;4842077;29;20067;-61
2022/09/07 07:51:39;;;;;;;103.47;10.20;;;;;;;;;;4836155;29;20052;-62
2022/09/07 07:54:25;;;;;;;51.40;7.28;;;;;;;;;;4837032;29;20121;-61
2022/09/07 07:56:52;;;;;;;29.90;4.43;;;;;;;;;;4824471;29;20051;-61
2022/09/07 07:59:18;;;;;;;15.95;2.95;;;;;;;;;;4831186;29;20042;-61
2022/09/07 08:01:45;;;;;;;20.42;3.80;;;;;;;;;;4839156;29;20118;-61
2022/09/07 08:04:11;;;;;;;30.70;4.15;;;;;;;;;;4824875;29;20046;-61
2022/09/07 08:06:41;;;;;;;66.30;8.55;;;;;;;;;;4816301;29;20053;-62
2022/09/07 08:09:07;;;;;;;18.30;2.47;;;;;;;;;;4831647;29;20038;-61
2022/09/07 08:11:34;;;;;;;21.75;3.60;;;;;;;;;;4832516;29;20058;-61
2022/09/07 08:14:04;;;;;;;53.22;6.47;;;;;;;;;;4823714;29;20127;-62
2022/09/07 08:16:31;;;;;;;13.85;1.95;;;;;;;;;;4842124;29;20491;-62
2022/09/07 08:18:58;;;;;;;23.60;2.60;;;;;;;;;;4841686;29;20042;-62
2022/09/07 08:21:24;;;;;;;30.90;4.18;;;;;;;;;;4841195;29;20465;-62
2022/09/07 08:23:51;;;;;;;55.80;20.20;;;;;;;;;;4840297;29;20042;-61
2022/09/07 08:26:17;;;;;;;39.72;4.10;;;;;;;;;;4841316;29;20053;-62
2022/09/07 08:28:45;;;;;;;19.88;3.10;;;;;;;;;;4841842;29;20046;-62
2022/09/07 08:31:12;;;;;;;18.60;2.17;;;;;;;;;;4841518;29;20113;-62
2022/09/07 08:33:39;;;;;;;83.97;6.55;;;;;;;;;;4839600;29;20041;-62
2022/09/07 08:36:07;;;;;;;13.38;1.98;;;;;;;;;;4837872;29;20049;-61
2022/09/07 08:38:34;;;;;;;19.33;3.17;;;;;;;;;;4840387;29;20046;-62
2022/09/07 08:41:02;;;;;;;20.70;3.80;;;;;;;;;;4841519;29;20064;-62
2022/09/07 08:43:34;;;;;;;14.23;2.08;;;;;;;;;;4841560;29;20057;-62
2022/09/07 08:46:26;;;;;;;11.15;2.28;;;;;;;;;;4841382;29;20120;-62
2022/09/07 08:48:54;;;;;;;10.30;1.95;;;;;;;;;;4839524;29;20110;-62
2022/09/07 08:51:41;;;;;;;8.18;1.70;;;;;;;;;;4841310;29;20037;-62
2022/09/07 08:54:11;;;;;;;21.10;2.92;;;;;;;;;;4841489;29;20037;-62
2022/09/07 08:56:40;;;;;;;14.30;2.55;;;;;;;;;;4824202;29;20050;-61
2022/09/07 08:59:32;;;;;;;25.52;2.42;;;;;;;;;;4830751;29;20038;-64
2022/09/07 09:01:59;;;;;;;26.15;3.33;;;;;;;;;;4841442;29;20050;-63
2022/09/07 09:04:46;;;;;;;22.25;2.67;;;;;;;;;;4839129;29;20527;-63
2022/09/07 09:07:40;;;;;;;39.47;4.65;;;;;;;;;;4836986;29;20046;-63
2022/09/07 09:10:13;;;;;;;13.55;2.15;;;;;;;;;;4839246;29;20403;-63
2022/09/07 09:12:47;;;;;;;46.05;5.55;;;;;;;;;;4840190;29;20049;-63
2022/09/07 09:15:13;;;;;;;24.98;3.22;;;;;;;;;;4840458;29;20406;-63
2022/09/07 09:18:00;;;;;;;62.72;4.43;;;;;;;;;;4839975;29;20049;-63
2022/09/07 09:20:33;;;;;;;62.35;5.10;;;;;;;;;;4839932;29;20046;-63
2022/09/07 09:23:01;;;;;;;35.65;4.00;;;;;;;;;;4840543;29;20049;-63
2022/09/07 09:25:30;;;;;;;15.45;2.28;;;;;;;;;;4840601;29;20656;-63
2022/09/07 09:27:57;;;;;;;31.10;4.05;;;;;;;;;;4839105;29;20057;-63
2022/09/07 09:30:23;;;;;;;38.53;4.00;;;;;;;;;;4839892;29;20575;-63
2022/09/07 09:32:51;;;;;;;402.38;28.77;;;;;;;;;;4838475;29;20419;-63
2022/09/07 09:35:22;;;;;;;120.95;8.93;;;;;;;;;;4837139;29;20042;-63
2022/09/07 09:37:49;;;;;;;70.13;6.70;;;;;;;;;;4841356;29;20042;-64
2022/09/07 09:40:25;;;;;;;20.58;2.88;;;;;;;;;;4840445;29;20091;-63
2022/09/07 09:42:58;;;;;;;13.98;2.72;;;;;;;;;;4839873;29;20053;-64
2022/09/07 09:45:26;;;;;;;83.25;12.25;;;;;;;;;;4835062;29;20046;-61
2022/09/07 09:47:53;;;;;;;21.05;3.95;;;;;;;;;;4823213;29;20496;-63
2022/09/07 09:50:24;;;;;;;15.43;3.28;;;;;;;;;;4839863;29;20080;-63
2022/09/07 09:53:37;;;;;;;21.45;3.67;;;;;;;;;;4829997;29;20480;-63
2022/09/07 09:56:04;;;;;;;18.10;3.00;;;;;;;;;;4836584;29;20069;-63
2022/09/07 09:58:32;;;;;;;21.27;3.58;;;;;;;;;;4840230;29;20798;-64
2022/09/07 10:01:21;;;;;;;15.75;3.00;;;;;;;;;;4839760;29;20058;-63
2022/09/07 10:03:50;;;;;;;21.63;3.70;;;;;;;;;;4838830;29;20046;-63
2022/09/07 10:06:20;;;;;;;25.40;2.95;;;;;;;;;;4839306;29;20625;-63
2022/09/07 10:08:52;;;;;;;19.17;2.47;;;;;;;;;;4839935;29;20209;-63
2022/09/07 10:11:37;;;;;;;14.68;2.67;;;;;;;;;;4853982;29;20086;-63
2022/09/07 10:14:56;;;;;;;25.38;2.83;;;;;;;;;;4839730;29;20106;-63
2022/09/07 10:17:33;;;;;;;73.60;7.38;;;;;;;;;;4817060;29;20598;-63
2022/09/07 10:20:02;;;;;;;32.67;3.53;;;;;;;;;;4819819;29;20074;-63
2022/09/07 10:22:29;;;;;;;11.55;2.35;;;;;;;;;;4816371;29;20060;-63
2022/09/07 10:24:56;;;;;;;21.35;3.22;;;;;;;;;;4814766;29;20069;-65
2022/09/07 10:27:28;;;;;;;21.67;3.28;;;;;;;;;;4813672;29;20058;-64
2022/09/07 10:29:55;;;;;;;31.00;3.65;;;;;;;;;;4815790;29;20047;-65
2022/09/07 10:32:44;;;;;;;47.45;5.18;;;;;;;;;;4815001;29;20065;-64
2022/09/07 10:35:16;;;;;;;28.25;3.42;;;;;;;;;;4812360;29;20082;-64
2022/09/07 10:37:43;;;;;;;21.98;3.30;;;;;;;;;;4817965;29;20183;-65
2022/09/07 10:40:11;;;;;;;24.95;3.55;;;;;;;;;;4815226;29;20431;-65
2022/09/07 10:42:43;;;;;;;67.78;5.85;;;;;;;;;;4799612;29;20163;-65
2022/09/07 10:45:53;;;;;;;20.30;3.35;;;;;;;;;;4815485;29;20047;-64
2022/09/07 10:48:19;;;;;;;17.13;2.33;;;;;;;;;;4812616;29;20522;-65
2022/09/07 10:50:48;;;;;;;31.77;4.13;;;;;;;;;;4815411;29;20606;-65
2022/09/07 10:53:34;;;;;;;33.80;3.67;;;;;;;;;;4822001;29;20050;-68
2022/09/07 10:56:14;;;;;;;39.15;3.47;;;;;;;;;;4834665;29;20095;-68
2022/09/07 10:58:43;;;;;;;25.40;3.67;;;;;;;;;;4824065;29;20125;-69
2022/09/07 11:01:30;;;;;;;13.13;2.35;;;;;;;;;;4826870;29;20050;-70
2022/09/07 11:04:08;;;;;;;26.20;3.20;;;;;;;;;;4825547;29;20042;-68
2022/09/07 11:06:44;;;;;;;15.32;1.88;;;;;;;;;;4825523;29;20465;-68
2022/09/07 11:09:23;;;;;;;12.82;2.10;;;;;;;;;;4825375;29;20461;-69
2022/09/07 11:12:08;;;;;;;96.22;7.53;;;;;;;;;;4825019;29;20058;-68
2022/09/07 11:14:37;;;;;;;30.77;3.33;;;;;;;;;;4828251;29;20093;-69
2022/09/07 11:17:15;;;;;;;46.70;4.85;;;;;;;;;;4842942;29;20046;-69
2022/09/07 11:19:42;;;;;;;28.73;3.75;;;;;;;;;;4842612;29;20046;-64
2022/09/07 11:22:14;;;;;;;22.70;3.55;;;;;;;;;;4839268;29;20510;-66
2022/09/07 11:24:51;;;;;;;18.63;3.15;;;;;;;;;;4842034;29;20122;-66
2022/09/07 11:27:46;;;;;;;47.03;4.05;;;;;;;;;;4837543;29;20116;-67
2022/09/07 11:30:13;;;;;;;16.15;2.60;;;;;;;;;;4842282;29;20038;-70
2022/09/07 11:32:44;;;;;;;22.20;3.22;;;;;;;;;;4840078;29;20042;-64
2022/09/07 11:35:10;;;;;;;48.67;5.30;;;;;;;;;;4838299;29;20512;-63
2022/09/07 11:37:45;;;;;;;58.85;4.95;;;;;;;;;;4842161;29;20062;-75
2022/09/07 11:40:16;;;;;;;24.27;3.25;;;;;;;;;;4841859;29;20054;-68
2022/09/07 11:42:46;;;;;;;23.27;2.63;;;;;;;;;;4842099;29;20073;-70
2022/09/07 11:45:18;;;;;;;16.10;2.53;;;;;;;;;;4842040;29;20050;-68
2022/09/07 11:47:48;;;;;;;25.92;3.80;;;;;;;;;;4842110;29;20042;-67
2022/09/07 11:50:15;;;;;;;22.60;3.28;;;;;;;;;;4830481;29;20133;-66
2022/09/07 11:52:43;;;;;;;22.05;3.25;;;;;;;;;;4842133;29;20457;-67
2022/09/07 11:55:20;;;;;;;12.98;2.15;;;;;;;;;;4837709;29;20034;-70
2022/09/07 11:58:06;;;;;;;29.70;3.90;;;;;;;;;;4836415;29;20050;-66
2022/09/07 12:00:41;;;;;;;14.65;2.20;;;;;;;;;;4841831;29;20048;-68
2022/09/07 12:03:39;;;;;;;22.35;3.40;;;;;;;;;;4841128;29;20068;-68
2022/09/07 12:06:25;;;;;;;27.65;3.42;;;;;;;;;;4805541;29;20050;-68
2022/09/07 12:08:54;;;;;;;12.77;2.13;;;;;;;;;;4809337;29;20086;-68
2022/09/07 12:11:33;;;;;;;39.63;5.18;;;;;;;;;;4817601;29;20054;-68
2022/09/07 12:14:05;;;;;;;15.32;2.60;;;;;;;;;;4806377;29;20055;-67
2022/09/07 12:16:32;;;;;;;9.60;1.90;;;;;;;;;;4818280;29;20062;-65
2022/09/07 12:19:14;;;;;;;16.42;2.65;;;;;;;;;;4808690;29;20050;-75
2022/09/07 12:21:42;;;;;;;32.00;4.60;;;;;;;;;;4809086;29;20072;-68
2022/09/07 12:24:35;;;;;;;30.08;4.25;;;;;;;;;;4813279;29;20054;-69
2022/09/07 12:27:03;;;;;;;26.30;3.60;;;;;;;;;;4779519;30;20479;-69
2022/09/07 12:29:30;;;;;;;71.38;7.55;;;;;;;;;;4779266;30;20576;-70
2022/09/07 12:31:58;;;;;;;75.22;5.90;;;;;;;;;;4780958;30;20059;-72
2022/09/07 12:34:49;;;;;;;30.92;3.38;;;;;;;;;;4779250;30;20574;-69
2022/09/07 12:37:33;;;;;;;33.63;4.97;;;;;;;;;;4778662;30;20090;-71
2022/09/07 12:40:18;;;;;;;37.83;5.20;;;;;;;;;;4780323;30;20051;-70
2022/09/07 12:42:44;;;;;;;42.28;4.30;;;;;;;;;;4782182;30;20120;-74
2022/09/07 12:45:29;;;;;;;41.22;5.72;;;;;;;;;;4781420;30;20055;-78
2022/09/07 12:47:57;;;;;;;35.00;4.40;;;;;;;;;;4783430;30;20047;-71
2022/09/07 12:50:26;;;;;;;30.08;4.45;;;;;;;;;;4770800;30;20089;-76
2022/09/07 12:53:14;;;;;;;15.25;2.30;;;;;;;;;;4783285;30;20054;-73
2022/09/07 12:56:09;;;;;;;20.23;3.05;;;;;;;;;;4783308;30;20051;-72
2022/09/07 12:58:52;;;;;;;37.75;4.13;;;;;;;;;;4778244;30;20556;-73
2022/09/07 13:01:18;;;;;;;17.33;3.05;;;;;;;;;;4782005;30;20051;-70
2022/09/07 13:03:54;;;;;;;26.83;3.70;;;;;;;;;;4805408;29;20169;-68
2022/09/07 13:06:26;;;;;;;67.95;5.45;;;;;;;;;;4833256;29;20072;-70
2022/09/07 13:09:22;;;;;;;22.75;3.00;;;;;;;;;;4838901;29;20116;-74
2022/09/07 13:11:49;;;;;;;195.68;12.43;;;;;;;;;;4838861;29;20042;-68
2022/09/07 13:14:20;;;;;;;16.13;3.30;;;;;;;;;;4840397;29;20045;-68
2022/09/07 13:16:47;;;;;;;31.65;4.30;;;;;;;;;;4841474;29;20129;-68
2022/09/07 13:19:45;;;;;;;14.65;2.50;;;;;;;;;;4839820;29;20496;-68
2022/09/07 13:22:31;;;;;;;64.30;5.60;;;;;;;;;;4840413;29;20061;-68
2022/09/07 13:24:58;;;;;;;16.45;2.50;;;;;;;;;;4840595;29;20106;-68
2022/09/07 13:27:31;;;;;;;20.48;2.72;;;;;;;;;;4838798;29;20046;-67
2022/09/07 13:30:01;;;;;;;12.95;2.63;;;;;;;;;;4840179;29;20053;-68
2022/09/07 13:32:30;;;;;;;42.60;6.60;;;;;;;;;;4835577;29;20058;-69
2022/09/07 13:35:26;;;;;;;32.38;5.32;;;;;;;;;;4833574;29;20045;-68
2022/09/07 13:37:59;;;;;;;42.75;5.38;;;;;;;;;;4840386;29;20102;-68
2022/09/07 13:40:28;;;;;;;51.00;4.68;;;;;;;;;;4840204;29;20124;-68
2022/09/07 13:42:55;;;;;;;22.55;3.78;;;;;;;;;;4839456;29;20046;-68
2022/09/07 13:45:45;;;;;;;15.77;2.47;;;;;;;;;;4840152;29;20124;-67
2022/09/07 13:48:35;;;;;;;30.77;3.55;;;;;;;;;;4833807;29;20516;-67
2022/09/07 13:51:09;;;;;;;13.85;2.10;;;;;;;;;;4837169;29;20058;-69
2022/09/07 13:53:41;;;;;;;18.67;2.78;;;;;;;;;;4838872;29;20061;-69
2022/09/07 13:56:14;;;;;;;19.83;2.55;;;;;;;;;;4822635;29;20050;-70
2022/09/07 13:58:41;;;;;;;20.95;3.15;;;;;;;;;;4830259;29;20106;-70
2022/09/07 14:01:11;;;;;;;25.20;3.30;;;;;;;;;;4823742;29;20049;-69
2022/09/07 14:03:42;;;;;;;13.38;1.77;;;;;;;;;;4832767;29;20050;-70
2022/09/07 14:06:12;;;;;;;22.02;3.40;;;;;;;;;;4839176;29;20495;-70
2022/09/07 14:08:40;;;;;;;14.90;2.08;;;;;;;;;;4839161;29;20054;-69
2022/09/07 14:11:21;;;;;;;21.10;3.05;;;;;;;;;;4838629;29;20046;-69
2022/09/07 14:14:06;;;;;;;23.77;4.05;;;;;;;;;;4839831;29;20053;-69
2022/09/07 14:16:35;;;;;;;34.53;4.38;;;;;;;;;;4839745;29;20575;-69
2022/09/07 14:19:08;;;;;;;40.45;3.60;;;;;;;;;;4835814;29;20072;-69
2022/09/07 14:21:35;;;;;;;41.50;4.18;;;;;;;;;;4839443;29;20550;-69
2022/09/07 14:24:02;;;;;;;39.25;4.72;;;;;;;;;;4838865;29;20046;-69
2022/09/07 14:26:29;;;;;;;20.75;2.55;;;;;;;;;;4839469;29;20045;-70
2022/09/07 14:28:55;;;;;;;24.80;3.20;;;;;;;;;;4839922;29;20427;-70
2022/09/07 14:31:23;;;;;;;25.42;3.58;;;;;;;;;;4839373;29;20049;-69
2022/09/07 14:33:58;;;;;;;15.90;2.55;;;;;;;;;;4836240;29;20487;-70
2022/09/07 14:36:35;;;;;;;323.55;24.67;;;;;;;;;;4835264;29;20084;-70
2022/09/07 14:39:12;;;;;;;69.97;5.53;;;;;;;;;;4839573;29;20038;-69
2022/09/07 14:41:40;;;;;;;52.20;4.90;;;;;;;;;;4839005;29;20042;-69
2022/09/07 14:44:25;;;;;;;116.22;10.60;;;;;;;;;;4833949;29;20062;-69
2022/09/07 14:46:53;;;;;;;183.30;16.80;;;;;;;;;;4835592;29;20121;-69
2022/09/07 14:49:23;;;;;;;67.80;6.78;;;;;;;;;;4841507;29;20770;-69
2022/09/07 14:51:50;;;;;;;30.38;4.25;;;;;;;;;;4842909;29;20050;-69